sensor_id;sensor_type;location;lat;lon;timestamp;temperature;humidity
15900;DHT22;8048;50.644;6.184;2023-02-15T00:01:28;4.00;98.60
15900;DHT22;8048;50.644;6.184;2023-02-15T00:03:54;4.00;98.80
15900;DHT22;8048;50.644;6.184;2023-02-15T00:06:19;4.00;98.90
15900;DHT22;8048;50.644;6.184;2023-02-15T00:08:45;4.00;98.50
15900;DHT22;8048;50.644;6.184;2023-02-15T00:11:13;4.00;98.30
15900;DHT22;8048;50.644;6.184;2023-02-15T00:13:38;3.90;98.40
15900;DHT22;8048;50.644;6.184;2023-02-15T00:16:09;4.00;98.30
15900;DHT22;8048;50.644;6.184;2023-02-15T00:18:35;4.00;98.50
15900;DHT22;8048;50.644;6.184;2023-02-15T00:21:06;3.90;98.60
15900;DHT22;8048;50.644;6.184;2023-02-15T00:23:32;4.00;99.00
15900;DHT22;8048;50.644;6.184;2023-02-15T00:26:11;4.10;98.70
15900;DHT22;8048;50.644;6.184;2023-02-15T00:28:37;4.10;98.30
15900;DHT22;8048;50.644;6.184;2023-02-15T00:31:08;4.10;98.40
15900;DHT22;8048;50.644;6.184;2023-02-15T00:33:35;4.10;98.00
15900;DHT22;8048;50.644;6.184;2023-02-15T00:36:01;4.10;97.90
15900;DHT22;8048;50.644;6.184;2023-02-15T00:38:28;4.00;97.80
15900;DHT22;8048;50.644;6.184;2023-02-15T00:40:55;3.90;97.80
15900;DHT22;8048;50.644;6.184;2023-02-15T00:43:21;4.00;98.20
15900;DHT22;8048;50.644;6.184;2023-02-15T00:45:47;3.90;98.00
15900;DHT22;8048;50.644;6.184;2023-02-15T00:48:12;3.80;97.80
15900;DHT22;8048;50.644;6.184;2023-02-15T00:50:38;3.70;97.60
15900;DHT22;8048;50.644;6.184;2023-02-15T00:53:03;3.70;97.80
15900;DHT22;8048;50.644;6.184;2023-02-15T00:55:29;3.60;97.60
15900;DHT22;8048;50.644;6.184;2023-02-15T00:57:54;3.50;98.10
15900;DHT22;8048;50.644;6.184;2023-02-15T01:00:20;3.50;98.60
15900;DHT22;8048;50.644;6.184;2023-02-15T01:02:46;3.50;98.80
15900;DHT22;8048;50.644;6.184;2023-02-15T01:05:11;3.50;98.60
15900;DHT22;8048;50.644;6.184;2023-02-15T01:07:37;3.50;98.40
15900;DHT22;8048;50.644;6.184;2023-02-15T01:10:05;3.40;98.20
15900;DHT22;8048;50.644;6.184;2023-02-15T01:12:30;3.30;98.40
15900;DHT22;8048;50.644;6.184;2023-02-15T01:14:56;3.30;98.30
15900;DHT22;8048;50.644;6.184;2023-02-15T01:17:21;3.10;98.00
15900;DHT22;8048;50.644;6.184;2023-02-15T01:19:47;3.10;98.40
15900;DHT22;8048;50.644;6.184;2023-02-15T01:22:12;3.10;98.60
15900;DHT22;8048;50.644;6.184;2023-02-15T01:24:38;3.00;98.30
15900;DHT22;8048;50.644;6.184;2023-02-15T01:27:03;3.00;98.40
15900;DHT22;8048;50.644;6.184;2023-02-15T01:29:29;2.90;98.70
15900;DHT22;8048;50.644;6.184;2023-02-15T01:31:54;2.90;98.80
15900;DHT22;8048;50.644;6.184;2023-02-15T01:34:20;2.80;98.70
15900;DHT22;8048;50.644;6.184;2023-02-15T01:36:45;2.80;98.60
15900;DHT22;8048;50.644;6.184;2023-02-15T01:39:11;2.70;98.80
15900;DHT22;8048;50.644;6.184;2023-02-15T01:41:36;2.70;99.10
15900;DHT22;8048;50.644;6.184;2023-02-15T01:44:03;2.70;99.30
15900;DHT22;8048;50.644;6.184;2023-02-15T01:49:11;2.60;99.50
15900;DHT22;8048;50.644;6.184;2023-02-15T01:51:41;2.60;99.40
15900;DHT22;8048;50.644;6.184;2023-02-15T01:54:29;2.60;99.40
15900;DHT22;8048;50.644;6.184;2023-02-15T01:57:00;2.50;99.30
15900;DHT22;8048;50.644;6.184;2023-02-15T01:59:28;2.50;99.60
15900;DHT22;8048;50.644;6.184;2023-02-15T02:01:57;2.50;99.60
15900;DHT22;8048;50.644;6.184;2023-02-15T02:04:31;2.40;99.30
15900;DHT22;8048;50.644;6.184;2023-02-15T02:06:59;2.30;99.10
15900;DHT22;8048;50.644;6.184;2023-02-15T02:09:25;2.30;99.30
15900;DHT22;8048;50.644;6.184;2023-02-15T02:11:51;2.30;99.20
15900;DHT22;8048;50.644;6.184;2023-02-15T02:14:19;2.30;99.10
15900;DHT22;8048;50.644;6.184;2023-02-15T02:16:57;2.30;99.10
15900;DHT22;8048;50.644;6.184;2023-02-15T02:22:23;2.10;98.70
15900;DHT22;8048;50.644;6.184;2023-02-15T02:26:19;2.10;98.90
15900;DHT22;8048;50.644;6.184;2023-02-15T02:42:43;2.10;99.90
15900;DHT22;8048;50.644;6.184;2023-02-15T02:45:15;2.00;99.90
15900;DHT22;8048;50.644;6.184;2023-02-15T02:48:09;1.90;99.70
15900;DHT22;8048;50.644;6.184;2023-02-15T02:50:38;1.90;99.40
15900;DHT22;8048;50.644;6.184;2023-02-15T02:53:04;1.90;99.90
15900;DHT22;8048;50.644;6.184;2023-02-15T02:55:47;1.80;99.90
15900;DHT22;8048;50.644;6.184;2023-02-15T02:58:19;1.80;99.90
15900;DHT22;8048;50.644;6.184;2023-02-15T03:00:50;1.80;99.90
15900;DHT22;8048;50.644;6.184;2023-02-15T03:03:37;1.80;99.90
15900;DHT22;8048;50.644;6.184;2023-02-15T03:06:30;1.80;99.90
15900;DHT22;8048;50.644;6.184;2023-02-15T03:09:08;1.80;99.90
15900;DHT22;8048;50.644;6.184;2023-02-15T03:11:43;1.80;99.90
15900;DHT22;8048;50.644;6.184;2023-02-15T03:14:09;1.70;99.90
15900;DHT22;8048;50.644;6.184;2023-02-15T03:16:36;1.70;99.90
15900;DHT22;8048;50.644;6.184;2023-02-15T03:19:09;1.60;99.90
15900;DHT22;8048;50.644;6.184;2023-02-15T03:21:46;1.60;99.90
15900;DHT22;8048;50.644;6.184;2023-02-15T03:24:19;1.60;99.90
15900;DHT22;8048;50.644;6.184;2023-02-15T03:26:50;1.60;99.90
15900;DHT22;8048;50.644;6.184;2023-02-15T03:29:18;1.50;99.90
15900;DHT22;8048;50.644;6.184;2023-02-15T03:31:46;1.50;99.90
15900;DHT22;8048;50.644;6.184;2023-02-15T03:34:15;1.50;99.90
15900;DHT22;8048;50.644;6.184;2023-02-15T03:37:02;1.50;99.90
15900;DHT22;8048;50.644;6.184;2023-02-15T03:39:56;1.50;99.90
15900;DHT22;8048;50.644;6.184;2023-02-15T03:42:45;1.50;99.90
15900;DHT22;8048;50.644;6.184;2023-02-15T03:45:15;1.50;99.90
15900;DHT22;8048;50.644;6.184;2023-02-15T03:47:46;1.50;99.90
15900;DHT22;8048;50.644;6.184;2023-02-15T03:50:22;1.50;99.90
15900;DHT22;8048;50.644;6.184;2023-02-15T03:53:10;1.50;99.90
15900;DHT22;8048;50.644;6.184;2023-02-15T03:55:37;1.50;99.90
15900;DHT22;8048;50.644;6.184;2023-02-15T03:58:03;1.40;99.90
15900;DHT22;8048;50.644;6.184;2023-02-15T04:00:54;1.50;99.90
15900;DHT22;8048;50.644;6.184;2023-02-15T04:03:43;1.50;99.90
15900;DHT22;8048;50.644;6.184;2023-02-15T04:06:10;1.40;99.90
15900;DHT22;8048;50.644;6.184;2023-02-15T04:08:36;1.30;99.90
15900;DHT22;8048;50.644;6.184;2023-02-15T04:11:20;1.20;99.80
15900;DHT22;8048;50.644;6.184;2023-02-15T04:13:45;1.20;99.90
15900;DHT22;8048;50.644;6.184;2023-02-15T04:16:11;1.20;99.90
15900;DHT22;8048;50.644;6.184;2023-02-15T04:18:41;1.20;99.90
15900;DHT22;8048;50.644;6.184;2023-02-15T04:21:28;1.20;99.90
15900;DHT22;8048;50.644;6.184;2023-02-15T04:24:14;1.20;99.90
15900;DHT22;8048;50.644;6.184;2023-02-15T04:26:59;1.20;99.90
15900;DHT22;8048;50.644;6.184;2023-02-15T04:29:26;1.20;99.90
15900;DHT22;8048;50.644;6.184;2023-02-15T04:31:52;1.20;99.90
15900;DHT22;8048;50.644;6.184;2023-02-15T04:34:18;1.20;99.90
15900;DHT22;8048;50.644;6.184;2023-02-15T04:36:44;1.20;99.90
15900;DHT22;8048;50.644;6.184;2023-02-15T04:39:12;1.10;99.90
15900;DHT22;8048;50.644;6.184;2023-02-15T04:41:38;1.10;99.90
15900;DHT22;8048;50.644;6.184;2023-02-15T04:44:04;1.00;99.90
15900;DHT22;8048;50.644;6.184;2023-02-15T04:46:30;0.90;99.90
15900;DHT22;8048;50.644;6.184;2023-02-15T04:48:56;0.90;99.90
15900;DHT22;8048;50.644;6.184;2023-02-15T04:51:21;0.90;99.90
15900;DHT22;8048;50.644;6.184;2023-02-15T04:53:47;0.80;99.90
15900;DHT22;8048;50.644;6.184;2023-02-15T04:56:12;0.80;99.90
15900;DHT22;8048;50.644;6.184;2023-02-15T04:58:38;0.80;99.90
15900;DHT22;8048;50.644;6.184;2023-02-15T05:01:07;0.90;99.90
15900;DHT22;8048;50.644;6.184;2023-02-15T05:03:33;0.80;99.90
15900;DHT22;8048;50.644;6.184;2023-02-15T05:05:58;0.80;99.90
15900;DHT22;8048;50.644;6.184;2023-02-15T05:08:24;0.80;99.90
15900;DHT22;8048;50.644;6.184;2023-02-15T05:10:50;0.80;99.90
15900;DHT22;8048;50.644;6.184;2023-02-15T05:13:15;0.80;99.90
15900;DHT22;8048;50.644;6.184;2023-02-15T05:15:41;0.80;99.90
15900;DHT22;8048;50.644;6.184;2023-02-15T05:18:06;0.80;99.90
15900;DHT22;8048;50.644;6.184;2023-02-15T05:20:33;0.80;99.90
15900;DHT22;8048;50.644;6.184;2023-02-15T05:22:59;0.70;99.90
15900;DHT22;8048;50.644;6.184;2023-02-15T05:25:24;0.70;99.90
15900;DHT22;8048;50.644;6.184;2023-02-15T05:28:11;0.70;99.90
15900;DHT22;8048;50.644;6.184;2023-02-15T05:30:50;0.70;99.90
15900;DHT22;8048;50.644;6.184;2023-02-15T05:33:16;0.70;99.90
15900;DHT22;8048;50.644;6.184;2023-02-15T05:35:42;0.60;99.90
15900;DHT22;8048;50.644;6.184;2023-02-15T05:38:08;0.60;99.90
15900;DHT22;8048;50.644;6.184;2023-02-15T05:40:34;0.60;99.90
15900;DHT22;8048;50.644;6.184;2023-02-15T05:42:59;0.50;99.90
15900;DHT22;8048;50.644;6.184;2023-02-15T05:45:25;0.50;99.90
15900;DHT22;8048;50.644;6.184;2023-02-15T05:47:50;0.50;99.90
15900;DHT22;8048;50.644;6.184;2023-02-15T05:50:16;0.50;99.90
15900;DHT22;8048;50.644;6.184;2023-02-15T05:52:42;0.50;99.90
15900;DHT22;8048;50.644;6.184;2023-02-15T05:55:08;0.60;99.90
15900;DHT22;8048;50.644;6.184;2023-02-15T05:57:34;0.50;99.90
15900;DHT22;8048;50.644;6.184;2023-02-15T06:00:00;0.50;99.90
15900;DHT22;8048;50.644;6.184;2023-02-15T06:02:26;0.50;99.90
15900;DHT22;8048;50.644;6.184;2023-02-15T06:04:51;0.50;99.90
15900;DHT22;8048;50.644;6.184;2023-02-15T06:07:17;0.60;99.90
15900;DHT22;8048;50.644;6.184;2023-02-15T06:09:42;0.60;99.90
15900;DHT22;8048;50.644;6.184;2023-02-15T06:12:08;0.60;99.90
15900;DHT22;8048;50.644;6.184;2023-02-15T06:14:33;0.50;99.90
15900;DHT22;8048;50.644;6.184;2023-02-15T06:16:59;0.50;99.90
15900;DHT22;8048;50.644;6.184;2023-02-15T06:19:24;0.50;99.90
15900;DHT22;8048;50.644;6.184;2023-02-15T06:21:50;0.50;99.90
15900;DHT22;8048;50.644;6.184;2023-02-15T06:24:16;0.50;99.90
15900;DHT22;8048;50.644;6.184;2023-02-15T06:26:41;0.50;99.90
15900;DHT22;8048;50.644;6.184;2023-02-15T06:29:07;0.50;99.90
15900;DHT22;8048;50.644;6.184;2023-02-15T06:31:32;0.50;99.90
15900;DHT22;8048;50.644;6.184;2023-02-15T06:33:58;0.50;99.90
15900;DHT22;8048;50.644;6.184;2023-02-15T06:36:27;0.50;99.90
15900;DHT22;8048;50.644;6.184;2023-02-15T06:38:53;0.50;99.90
15900;DHT22;8048;50.644;6.184;2023-02-15T06:41:18;0.50;99.90
15900;DHT22;8048;50.644;6.184;2023-02-15T06:43:43;0.40;99.90
15900;DHT22;8048;50.644;6.184;2023-02-15T06:46:09;0.40;99.90
15900;DHT22;8048;50.644;6.184;2023-02-15T06:48:34;0.50;99.90
15900;DHT22;8048;50.644;6.184;2023-02-15T06:51:00;0.50;99.90
15900;DHT22;8048;50.644;6.184;2023-02-15T06:53:26;0.50;99.90
15900;DHT22;8048;50.644;6.184;2023-02-15T06:55:51;0.50;99.90
15900;DHT22;8048;50.644;6.184;2023-02-15T06:58:17;0.60;99.90
15900;DHT22;8048;50.644;6.184;2023-02-15T07:00:42;0.60;99.90
15900;DHT22;8048;50.644;6.184;2023-02-15T07:03:08;0.60;99.90
15900;DHT22;8048;50.644;6.184;2023-02-15T07:05:34;0.60;99.90
15900;DHT22;8048;50.644;6.184;2023-02-15T07:08:00;0.60;99.90
15900;DHT22;8048;50.644;6.184;2023-02-15T07:10:26;0.60;99.90
15900;DHT22;8048;50.644;6.184;2023-02-15T07:12:52;0.60;99.90
15900;DHT22;8048;50.644;6.184;2023-02-15T07:15:19;0.60;99.90
15900;DHT22;8048;50.644;6.184;2023-02-15T07:17:48;0.60;99.90
15900;DHT22;8048;50.644;6.184;2023-02-15T07:20:16;0.70;99.90
15900;DHT22;8048;50.644;6.184;2023-02-15T07:22:42;0.70;99.90
15900;DHT22;8048;50.644;6.184;2023-02-15T07:25:09;0.80;99.90
15900;DHT22;8048;50.644;6.184;2023-02-15T07:27:35;0.80;99.90
15900;DHT22;8048;50.644;6.184;2023-02-15T07:30:01;0.90;99.90
15900;DHT22;8048;50.644;6.184;2023-02-15T07:32:30;0.90;99.90
15900;DHT22;8048;50.644;6.184;2023-02-15T07:34:56;0.90;99.90
15900;DHT22;8048;50.644;6.184;2023-02-15T07:37:22;1.00;99.90
15900;DHT22;8048;50.644;6.184;2023-02-15T07:39:47;1.00;99.90
15900;DHT22;8048;50.644;6.184;2023-02-15T07:42:13;1.10;99.90
15900;DHT22;8048;50.644;6.184;2023-02-15T07:44:38;1.20;99.90
15900;DHT22;8048;50.644;6.184;2023-02-15T07:47:04;1.20;99.90
15900;DHT22;8048;50.644;6.184;2023-02-15T07:49:29;1.30;99.90
15900;DHT22;8048;50.644;6.184;2023-02-15T07:51:55;1.40;99.90
15900;DHT22;8048;50.644;6.184;2023-02-15T07:54:20;1.40;99.90
15900;DHT22;8048;50.644;6.184;2023-02-15T07:56:46;1.50;99.90
15900;DHT22;8048;50.644;6.184;2023-02-15T07:59:11;1.70;99.90
15900;DHT22;8048;50.644;6.184;2023-02-15T08:01:38;1.70;99.90
15900;DHT22;8048;50.644;6.184;2023-02-15T08:04:06;1.80;99.90
15900;DHT22;8048;50.644;6.184;2023-02-15T08:06:34;1.90;99.90
15900;DHT22;8048;50.644;6.184;2023-02-15T08:09:02;2.10;99.90
15900;DHT22;8048;50.644;6.184;2023-02-15T08:11:31;2.30;99.90
15900;DHT22;8048;50.644;6.184;2023-02-15T08:14:08;2.50;99.90
15900;DHT22;8048;50.644;6.184;2023-02-15T08:16:41;2.80;99.90
15900;DHT22;8048;50.644;6.184;2023-02-15T08:19:17;3.10;99.90
15900;DHT22;8048;50.644;6.184;2023-02-15T08:21:51;3.40;99.90
15900;DHT22;8048;50.644;6.184;2023-02-15T08:24:21;3.60;99.80
15900;DHT22;8048;50.644;6.184;2023-02-15T08:26:48;3.80;99.40
15900;DHT22;8048;50.644;6.184;2023-02-15T08:29:16;4.10;98.80
15900;DHT22;8048;50.644;6.184;2023-02-15T08:31:42;4.50;98.10
15900;DHT22;8048;50.644;6.184;2023-02-15T08:34:09;4.90;96.20
15900;DHT22;8048;50.644;6.184;2023-02-15T08:36:36;5.30;95.60
15900;DHT22;8048;50.644;6.184;2023-02-15T08:39:04;5.60;94.80
15900;DHT22;8048;50.644;6.184;2023-02-15T08:41:37;6.00;93.70
15900;DHT22;8048;50.644;6.184;2023-02-15T08:44:06;6.30;93.40
15900;DHT22;8048;50.644;6.184;2023-02-15T08:46:36;6.70;91.80
15900;DHT22;8048;50.644;6.184;2023-02-15T08:49:03;7.10;90.20
15900;DHT22;8048;50.644;6.184;2023-02-15T08:51:32;7.40;90.50
15900;DHT22;8048;50.644;6.184;2023-02-15T08:54:00;7.70;90.00
15900;DHT22;8048;50.644;6.184;2023-02-15T08:56:29;8.00;91.70
15900;DHT22;8048;50.644;6.184;2023-02-15T08:58:57;8.40;90.10
15900;DHT22;8048;50.644;6.184;2023-02-15T09:01:26;8.70;88.60
15900;DHT22;8048;50.644;6.184;2023-02-15T09:03:55;9.00;90.20
15900;DHT22;8048;50.644;6.184;2023-02-15T09:06:22;9.40;86.30
15900;DHT22;8048;50.644;6.184;2023-02-15T09:08:49;9.80;86.70
15900;DHT22;8048;50.644;6.184;2023-02-15T09:13:48;10.30;75.60
15900;DHT22;8048;50.644;6.184;2023-02-15T09:16:15;10.60;74.80
15900;DHT22;8048;50.644;6.184;2023-02-15T09:18:43;10.90;74.30
15900;DHT22;8048;50.644;6.184;2023-02-15T09:21:12;11.20;68.70
15900;DHT22;8048;50.644;6.184;2023-02-15T09:23:43;11.30;69.80
15900;DHT22;8048;50.644;6.184;2023-02-15T09:26:17;11.60;64.50
15900;DHT22;8048;50.644;6.184;2023-02-15T09:28:44;11.70;64.60
15900;DHT22;8048;50.644;6.184;2023-02-15T09:31:16;12.00;66.40
15900;DHT22;8048;50.644;6.184;2023-02-15T09:33:43;12.40;63.80
15900;DHT22;8048;50.644;6.184;2023-02-15T09:38:44;12.80;60.90
15900;DHT22;8048;50.644;6.184;2023-02-15T09:55:18;14.30;58.40
15900;DHT22;8048;50.644;6.184;2023-02-15T10:09:17;15.00;57.30
15900;DHT22;8048;50.644;6.184;2023-02-15T10:12:29;15.20;55.50
15900;DHT22;8048;50.644;6.184;2023-02-15T10:15:13;15.80;58.10
15900;DHT22;8048;50.644;6.184;2023-02-15T10:20:59;16.90;54.70
15900;DHT22;8048;50.644;6.184;2023-02-15T10:26:36;17.90;52.30
15900;DHT22;8048;50.644;6.184;2023-02-15T10:31:50;18.40;53.20
15900;DHT22;8048;50.644;6.184;2023-02-15T10:34:39;18.50;53.60
15900;DHT22;8048;50.644;6.184;2023-02-15T10:37:42;18.50;51.30
15900;DHT22;8048;50.644;6.184;2023-02-15T10:40:24;18.80;52.30
15900;DHT22;8048;50.644;6.184;2023-02-15T10:42:55;19.50;51.60
15900;DHT22;8048;50.644;6.184;2023-02-15T10:45:38;20.30;54.00
15900;DHT22;8048;50.644;6.184;2023-02-15T10:50:49;21.70;53.10
15900;DHT22;8048;50.644;6.184;2023-02-15T10:53:57;22.10;48.60
15900;DHT22;8048;50.644;6.184;2023-02-15T10:56:36;22.20;47.80
15900;DHT22;8048;50.644;6.184;2023-02-15T11:04:45;22.70;48.90
15900;DHT22;8048;50.644;6.184;2023-02-15T11:07:15;22.70;44.30
15900;DHT22;8048;50.644;6.184;2023-02-15T11:09:45;22.80;48.10
15900;DHT22;8048;50.644;6.184;2023-02-15T11:12:17;23.20;45.90
15900;DHT22;8048;50.644;6.184;2023-02-15T11:17:33;23.10;43.90
15900;DHT22;8048;50.644;6.184;2023-02-15T11:20:37;23.50;45.90
15900;DHT22;8048;50.644;6.184;2023-02-15T11:23:12;23.70;43.90
15900;DHT22;8048;50.644;6.184;2023-02-15T11:25:40;23.60;43.60
15900;DHT22;8048;50.644;6.184;2023-02-15T11:28:27;23.80;45.30
15900;DHT22;8048;50.644;6.184;2023-02-15T11:30:55;23.80;45.30
15900;DHT22;8048;50.644;6.184;2023-02-15T11:33:31;24.00;45.00
15900;DHT22;8048;50.644;6.184;2023-02-15T11:36:12;23.80;42.50
15900;DHT22;8048;50.644;6.184;2023-02-15T11:38:39;23.60;41.70
15900;DHT22;8048;50.644;6.184;2023-02-15T11:41:14;23.70;41.90
15900;DHT22;8048;50.644;6.184;2023-02-15T11:43:49;23.50;42.80
15900;DHT22;8048;50.644;6.184;2023-02-15T11:46:16;23.80;42.90
15900;DHT22;8048;50.644;6.184;2023-02-15T11:48:44;24.30;42.00
15900;DHT22;8048;50.644;6.184;2023-02-15T11:51:14;24.30;39.30
15900;DHT22;8048;50.644;6.184;2023-02-15T11:53:41;24.30;40.70
15900;DHT22;8048;50.644;6.184;2023-02-15T11:56:16;24.80;44.00
15900;DHT22;8048;50.644;6.184;2023-02-15T11:58:47;24.80;39.90
15900;DHT22;8048;50.644;6.184;2023-02-15T12:03:47;25.10;42.70
15900;DHT22;8048;50.644;6.184;2023-02-15T12:06:22;25.10;42.10
15900;DHT22;8048;50.644;6.184;2023-02-15T12:08:56;25.10;41.20
15900;DHT22;8048;50.644;6.184;2023-02-15T12:11:33;24.70;42.50
15900;DHT22;8048;50.644;6.184;2023-02-15T12:14:02;24.90;44.30
15900;DHT22;8048;50.644;6.184;2023-02-15T12:16:31;25.30;42.40
15900;DHT22;8048;50.644;6.184;2023-02-15T12:18:59;25.50;43.20
15900;DHT22;8048;50.644;6.184;2023-02-15T12:21:33;25.60;40.90
15900;DHT22;8048;50.644;6.184;2023-02-15T12:24:37;25.60;43.30
15900;DHT22;8048;50.644;6.184;2023-02-15T12:27:05;25.50;40.80
15900;DHT22;8048;50.644;6.184;2023-02-15T12:30:10;25.50;41.40
15900;DHT22;8048;50.644;6.184;2023-02-15T12:32:54;26.10;41.90
15900;DHT22;8048;50.644;6.184;2023-02-15T12:35:30;26.10;40.80
15900;DHT22;8048;50.644;6.184;2023-02-15T12:38:19;26.50;42.90
15900;DHT22;8048;50.644;6.184;2023-02-15T12:41:04;26.70;42.70
15900;DHT22;8048;50.644;6.184;2023-02-15T12:43:37;27.00;40.00
15900;DHT22;8048;50.644;6.184;2023-02-15T12:46:25;27.10;41.00
15900;DHT22;8048;50.644;6.184;2023-02-15T12:51:50;27.60;42.20
15900;DHT22;8048;50.644;6.184;2023-02-15T12:54:40;27.70;39.50
15900;DHT22;8048;50.644;6.184;2023-02-15T12:57:30;27.30;38.60
15900;DHT22;8048;50.644;6.184;2023-02-15T13:03:14;26.80;41.10
15900;DHT22;8048;50.644;6.184;2023-02-15T13:08:09;27.60;40.60
15900;DHT22;8048;50.644;6.184;2023-02-15T13:10:52;28.20;41.80
15900;DHT22;8048;50.644;6.184;2023-02-15T13:13:21;28.00;40.20
15900;DHT22;8048;50.644;6.184;2023-02-15T13:15:52;27.80;41.30
15900;DHT22;8048;50.644;6.184;2023-02-15T13:18:44;27.90;39.40
15900;DHT22;8048;50.644;6.184;2023-02-15T13:21:13;27.40;37.20
15900;DHT22;8048;50.644;6.184;2023-02-15T13:23:44;26.70;38.90
15900;DHT22;8048;50.644;6.184;2023-02-15T13:26:15;26.10;37.80
15900;DHT22;8048;50.644;6.184;2023-02-15T13:28:47;25.80;38.10
15900;DHT22;8048;50.644;6.184;2023-02-15T13:31:17;25.60;40.10
15900;DHT22;8048;50.644;6.184;2023-02-15T13:33:48;25.70;38.70
15900;DHT22;8048;50.644;6.184;2023-02-15T13:36:31;25.90;41.30
15900;DHT22;8048;50.644;6.184;2023-02-15T13:39:13;25.70;39.30
15900;DHT22;8048;50.644;6.184;2023-02-15T13:42:05;25.00;40.70
15900;DHT22;8048;50.644;6.184;2023-02-15T13:44:48;25.30;41.50
15900;DHT22;8048;50.644;6.184;2023-02-15T13:53:36;24.90;39.00
15900;DHT22;8048;50.644;6.184;2023-02-15T13:56:17;24.20;40.00
15900;DHT22;8048;50.644;6.184;2023-02-15T14:01:58;23.70;39.70
15900;DHT22;8048;50.644;6.184;2023-02-15T14:07:39;24.10;41.60
15900;DHT22;8048;50.644;6.184;2023-02-15T14:10:39;24.10;42.50
15900;DHT22;8048;50.644;6.184;2023-02-15T14:18:43;23.50;43.10
15900;DHT22;8048;50.644;6.184;2023-02-15T14:29:49;22.00;42.10
15900;DHT22;8048;50.644;6.184;2023-02-15T14:32:51;21.70;43.40
15900;DHT22;8048;50.644;6.184;2023-02-15T14:35:21;21.40;43.00
15900;DHT22;8048;50.644;6.184;2023-02-15T14:38:43;21.30;44.50
15900;DHT22;8048;50.644;6.184;2023-02-15T14:41:18;21.30;44.30
15900;DHT22;8048;50.644;6.184;2023-02-15T14:43:56;21.10;43.50
15900;DHT22;8048;50.644;6.184;2023-02-15T14:48:56;20.70;43.90
15900;DHT22;8048;50.644;6.184;2023-02-15T15:09:40;19.50;47.50
15900;DHT22;8048;50.644;6.184;2023-02-15T15:14:47;19.40;47.50
15900;DHT22;8048;50.644;6.184;2023-02-15T15:20:00;19.10;47.50
15900;DHT22;8048;50.644;6.184;2023-02-15T15:22:27;18.80;46.20
15900;DHT22;8048;50.644;6.184;2023-02-15T15:25:00;18.60;48.10
15900;DHT22;8048;50.644;6.184;2023-02-15T15:37:50;17.90;50.00
15900;DHT22;8048;50.644;6.184;2023-02-15T15:43:18;17.60;50.30
15900;DHT22;8048;50.644;6.184;2023-02-15T15:48:40;17.10;49.30
15900;DHT22;8048;50.644;6.184;2023-02-15T15:51:18;17.00;49.00
15900;DHT22;8048;50.644;6.184;2023-02-15T15:53:46;16.80;48.90
15900;DHT22;8048;50.644;6.184;2023-02-15T15:56:27;16.70;50.50
15900;DHT22;8048;50.644;6.184;2023-02-15T15:59:00;16.50;49.10
15900;DHT22;8048;50.644;6.184;2023-02-15T16:01:28;16.30;50.90
15900;DHT22;8048;50.644;6.184;2023-02-15T16:03:57;16.20;49.60
15900;DHT22;8048;50.644;6.184;2023-02-15T16:06:28;16.10;51.80
15900;DHT22;8048;50.644;6.184;2023-02-15T16:08:54;16.00;51.60
15900;DHT22;8048;50.644;6.184;2023-02-15T16:11:25;15.80;51.10
15900;DHT22;8048;50.644;6.184;2023-02-15T16:13:52;15.80;53.20
15900;DHT22;8048;50.644;6.184;2023-02-15T16:16:24;15.60;53.00
15900;DHT22;8048;50.644;6.184;2023-02-15T16:18:51;15.60;53.30
15900;DHT22;8048;50.644;6.184;2023-02-15T16:21:25;15.50;53.10
15900;DHT22;8048;50.644;6.184;2023-02-15T16:27:07;15.10;54.20
15900;DHT22;8048;50.644;6.184;2023-02-15T16:29:36;14.80;54.30
15900;DHT22;8048;50.644;6.184;2023-02-15T16:32:27;14.70;55.70
15900;DHT22;8048;50.644;6.184;2023-02-15T16:34:58;14.40;54.80
15900;DHT22;8048;50.644;6.184;2023-02-15T16:37:32;14.30;55.90
15900;DHT22;8048;50.644;6.184;2023-02-15T16:39:59;14.20;56.70
15900;DHT22;8048;50.644;6.184;2023-02-15T16:42:25;14.00;57.10
15900;DHT22;8048;50.644;6.184;2023-02-15T16:45:12;13.90;56.90
15900;DHT22;8048;50.644;6.184;2023-02-15T16:47:41;13.80;57.10
15900;DHT22;8048;50.644;6.184;2023-02-15T16:50:18;13.60;57.70
15900;DHT22;8048;50.644;6.184;2023-02-15T16:52:45;13.40;58.00
15900;DHT22;8048;50.644;6.184;2023-02-15T16:55:23;13.30;59.00
15900;DHT22;8048;50.644;6.184;2023-02-15T16:57:49;13.20;59.70
15900;DHT22;8048;50.644;6.184;2023-02-15T17:00:21;13.10;61.20
15900;DHT22;8048;50.644;6.184;2023-02-15T17:03:06;13.00;62.40
15900;DHT22;8048;50.644;6.184;2023-02-15T17:05:45;12.80;62.70
15900;DHT22;8048;50.644;6.184;2023-02-15T17:13:28;12.60;66.10
15900;DHT22;8048;50.644;6.184;2023-02-15T17:18:27;12.50;66.10
15900;DHT22;8048;50.644;6.184;2023-02-15T17:20:57;12.40;65.00
15900;DHT22;8048;50.644;6.184;2023-02-15T17:23:32;12.20;67.20
15900;DHT22;8048;50.644;6.184;2023-02-15T17:26:01;12.00;68.30
15900;DHT22;8048;50.644;6.184;2023-02-15T17:28:35;11.80;68.30
15900;DHT22;8048;50.644;6.184;2023-02-15T17:31:06;11.70;70.30
15900;DHT22;8048;50.644;6.184;2023-02-15T17:36:21;11.60;72.00
15900;DHT22;8048;50.644;6.184;2023-02-15T17:41:26;11.40;73.80
15900;DHT22;8048;50.644;6.184;2023-02-15T17:43:52;11.30;74.80
15900;DHT22;8048;50.644;6.184;2023-02-15T17:46:18;11.20;75.40
15900;DHT22;8048;50.644;6.184;2023-02-15T17:48:48;11.10;75.60
15900;DHT22;8048;50.644;6.184;2023-02-15T17:51:15;11.10;75.80
15900;DHT22;8048;50.644;6.184;2023-02-15T17:53:42;11.10;77.80
15900;DHT22;8048;50.644;6.184;2023-02-15T17:56:33;11.10;75.70
15900;DHT22;8048;50.644;6.184;2023-02-15T17:58:59;10.90;76.00
15900;DHT22;8048;50.644;6.184;2023-02-15T18:01:25;10.90;79.20
15900;DHT22;8048;50.644;6.184;2023-02-15T18:04:14;10.90;93.80
15900;DHT22;8048;50.644;6.184;2023-02-15T18:06:58;10.70;93.70
15900;DHT22;8048;50.644;6.184;2023-02-15T18:09:43;10.80;93.20
15900;DHT22;8048;50.644;6.184;2023-02-15T18:12:32;10.70;92.80
15900;DHT22;8048;50.644;6.184;2023-02-15T18:14:58;10.60;92.70
15900;DHT22;8048;50.644;6.184;2023-02-15T18:17:41;10.10;92.00
15900;DHT22;8048;50.644;6.184;2023-02-15T18:22:45;10.30;89.60
15900;DHT22;8048;50.644;6.184;2023-02-15T18:25:16;10.30;90.30
15900;DHT22;8048;50.644;6.184;2023-02-15T18:27:42;10.20;89.40
15900;DHT22;8048;50.644;6.184;2023-02-15T18:30:13;10.10;83.70
15900;DHT22;8048;50.644;6.184;2023-02-15T18:32:40;10.00;82.20
15900;DHT22;8048;50.644;6.184;2023-02-15T18:35:06;10.00;84.30
15900;DHT22;8048;50.644;6.184;2023-02-15T18:37:32;9.90;84.80
15900;DHT22;8048;50.644;6.184;2023-02-15T18:39:59;9.90;85.90
15900;DHT22;8048;50.644;6.184;2023-02-15T18:42:30;9.90;83.40
15900;DHT22;8048;50.644;6.184;2023-02-15T18:44:58;9.80;84.60
15900;DHT22;8048;50.644;6.184;2023-02-15T18:47:24;9.70;84.00
15900;DHT22;8048;50.644;6.184;2023-02-15T18:49:50;9.60;85.80
15900;DHT22;8048;50.644;6.184;2023-02-15T18:52:17;9.50;86.70
15900;DHT22;8048;50.644;6.184;2023-02-15T18:54:44;9.50;86.60
15900;DHT22;8048;50.644;6.184;2023-02-15T18:57:14;9.50;84.80
15900;DHT22;8048;50.644;6.184;2023-02-15T18:59:40;9.40;84.90
15900;DHT22;8048;50.644;6.184;2023-02-15T19:02:14;9.30;86.70
15900;DHT22;8048;50.644;6.184;2023-02-15T19:04:41;9.20;86.80
15900;DHT22;8048;50.644;6.184;2023-02-15T19:07:20;9.20;87.40
15900;DHT22;8048;50.644;6.184;2023-02-15T19:09:50;9.00;87.40
15900;DHT22;8048;50.644;6.184;2023-02-15T19:12:17;9.00;86.40